EW3507 Weather Reports


Display with metric or nautical units.
time (UTC)temp
F
wind
direction
speed
MPH
gust
MPH
rain 1hr
in
rain 24hr
in
rain mn
in
humidity
%
barometer
mb
20190222165023 73 112 10.0 12.0 0.00 0.00 0.00 71 982.5
20190222164023 73 115 12.0 13.0 0.00 0.00 0.00 70 981.4
20190222163023 73 112 11.0 13.0 0.00 0.00 0.00 70 980.5
20190222162028 74 77 11.0 14.0 0.00 0.00 0.00 70 984.6
20190222161028 74 112 16.0 18.0 0.00 0.00 0.00 70 984.6
20190222160017 74 112 13.0 17.0 0.00 0.00 0.00 70 984.6
20190222155023 74 120 15.0 17.0 0.00 0.00 0.00 70 984.6
20190222154026 74 108 14.0 17.0 0.00 0.00 0.00 70 984.2
20190222153023 74 104 16.0 21.0 0.00 0.00 0.00 70 983.6
20190222150020 74 106 13.0 15.0 0.00 0.00 0.00 70 979.4
20190222145023 74 112 19.0 24.0 0.00 0.00 0.00 69 981.5
20190222143018 75 107 14.0 18.0 0.00 0.00 0.00 67 983.6
20190222135027 75 125 15.0 19.0 0.00 0.00 0.00 67 983.6
20190222134023 75 108 16.0 18.0 0.00 0.00 0.00 67 984.6
20190222133027 75 108 17.0 21.0 0.00 0.00 0.00 67 985.6
20190222132023 75 106 18.0 22.0 0.00 0.00 0.00 66 997.0
20190222131023 76 117 17.0 20.0 0.00 0.00 0.00 65 985.6
20190222130023 76 112 19.0 21.0 0.00 0.00 0.00 65 985.6
20190222125026 76 112 15.0 22.0 0.00 0.00 0.00 64 984.6
20190222124024 76 112 17.0 20.0 0.00 0.00 0.00 64 985.8
20190222122023 77 105 15.0 18.0 0.00 0.00 0.00 61 986.7
20190222120024 77 109 17.0 23.0 0.00 0.00 0.00 60 988.7
20190222115023 78 107 15.0 16.0 0.00 0.00 0.00 59 987.7
20190222113020 79 112 16.0 21.0 0.00 0.00 0.00 58 990.8
20190222112019 80 115 13.0 17.0 0.00 0.00 0.00 57 990.8
20190222111016 80 108 13.0 16.0 0.00 0.00 0.00 56 989.6
20190222110026 79 81 12.0 14.0 0.00 0.00 0.00 56 987.7
20190222105023 80 86 11.0 15.0 0.00 0.00 0.00 56 987.7
20190222101023 79 106 16.0 24.0 0.00 0.00 0.00 58 983.7
20190222095024 79 90 10.0 13.0 0.00 0.00 0.00 60 984.6
20190222091023 77 84 12.0 14.0 0.00 0.00 0.00 63 983.6
20190222084023 75 108 15.0 23.0 0.00 0.00 0.00 67 984.3
20190222082023 74 72 11.0 13.0 0.00 0.00 0.00 69 983.6
20190222080021 73 86 13.0 15.0 0.00 0.00 0.00 71 985.6
20190222075024 73 86 11.0 13.0 0.00 0.00 0.00 71 987.7
20190222074023 72 95 11.0 15.0 0.00 0.00 0.00 72 987.0
20190222073025 72 80 12.0 17.0 0.00 0.00 0.00 73 985.6
20190222065025 70 101 12.0 17.0 0.00 0.00 0.00 76 986.7
20190222064023 70 82 11.0 14.0 0.00 0.00 0.00 78 985.6
20190222063017 69 110 14.0 18.0 0.00 0.00 0.00 79 983.6
20190222052024 66 112 11.0 14.0 0.00 0.00 0.00 84 992.9
20190222050023 65 106 11.0 14.0 0.00 0.00 0.00 86 992.9
20190222045023 65 115 13.0 15.0 0.00 0.00 0.00 86 992.9
20190222043026 64 112 10.0 13.0 0.00 0.00 0.00 86 992.9
20190222042023 64 106 8.0 10.0 0.00 0.00 0.00 86 990.8
20190222040023 63 106 7.0 9.0 0.00 0.00 0.00 87 992.9
20190222032024 63 112 7.0 8.0 0.00 0.00 0.00 87 992.9
20190222030023 63 106 7.0 9.0 0.00 0.00 0.00 87 992.9
20190222024023 63 117 7.0 8.0 0.00 0.00 0.00 87 992.9
20190222023023 63 112 9.0 10.0 0.00 0.00 0.00 87 992.9
20190222022024 63 119 8.0 9.0 0.00 0.00 0.00 87 992.9
20190222021025 63 112 8.0 10.0 0.00 0.00 0.00 87 992.5
20190222015017 64 107 7.0 10.0 0.00 0.00 0.00 86 992.9
20190222014015 64 112 10.0 12.0 0.00 0.00 0.00 86 992.9
20190222013027 64 109 7.0 11.0 0.00 0.00 0.00 85 992.9
20190222012023 64 115 8.0 9.0 0.00 0.00 0.00 84 1004.3
20190222005023 65 112 7.0 9.0 0.00 0.00 0.00 84 993.9
20190222004017 65 112 7.0 8.0 0.00 0.00 0.00 84 993.9
20190222003023 65 98 6.0 6.0 0.00 0.00 0.00 84 993.9
20190222001023 66 87 5.0 6.0 0.00 0.00 0.00 83 993.9
20190221234023 66 94 7.0 10.0 0.00 0.00 0.00 83 992.9
20190221233016 66 115 10.0 10.0 0.00 0.00 0.00 83 992.9
20190221232027 66 109 7.0 8.0 0.00 0.00 0.00 83 1004.3
20190221231023 66 99 8.0 10.0 0.00 0.00 0.00 83 992.9
20190221225023 67 112 9.0 10.0 0.00 0.00 0.00 83 992.9
20190221224023 67 106 11.0 14.0 0.00 0.00 0.00 83 992.4
20190221223023 67 113 12.0 15.0 0.00 0.00 0.00 83 990.8
20190221222017 67 108 11.0 14.0 0.00 0.00 0.00 83 992.9
20190221221023 67 114 11.0 18.0 0.00 0.00 0.00 83 992.9
20190221220023 67 112 11.0 13.0 0.00 0.00 0.00 84 992.9
20190221215023 67 104 9.0 11.0 0.00 0.00 0.00 84 989.8
20190221214023 67 112 13.0 15.0 0.00 0.00 0.00 84 991.1
20190221213027 67 119 13.0 16.0 0.00 0.00 0.00 84 992.9
20190221205027 68 112 14.0 19.0 0.00 0.00 0.00 83 992.9
20190221204018 68 98 11.0 16.0 0.00 0.00 0.00 83 992.9
20190221202024 68 94 11.0 13.0 0.00 0.00 0.00 82 989.8
20190221201025 68 107 11.0 16.0 0.00 0.00 0.00 82 991.3
20190221200023 68 112 13.0 16.0 0.00 0.00 0.00 81 992.9
20190221195023 68 104 9.0 11.0 0.00 0.00 0.00 81 992.9
20190221194026 69 106 8.0 10.0 0.00 0.00 0.00 81 992.7
20190221193024 69 112 9.0 11.0 0.00 0.00 0.00 81 991.8
20190221192024 69 109 10.0 11.0 0.00 0.00 0.00 81 1003.2
20190221191024 69 107 10.0 13.0 0.00 0.00 0.00 80 992.9
20190221184024 69 112 12.0 15.0 0.00 0.00 0.00 80 991.8
20190221181024 69 89 11.0 13.0 0.00 0.00 0.00 79 992.5
20190221174026 70 112 12.0 12.0 0.00 0.00 0.00 78 991.8